Terminal Aerodrome Forecast
Issued by NWS

Home | Current Version | Previous Version | Text Only | Print | Product List | Glossary On
Versions: 1 2 3 4 5 6 7 8 9 10 11 12 13 14 15 16 17 18 19 20 21 22 23
310
FTUS43 KILX 201558 AAB
TAFCMI
TAF AMD
KCMI 201558Z 2016/2112 22005KT 2SM BR OVC003
      TEMPO 2016/2017 3/4SM BR
     FM201800 19007KT 4SM BR OVC008
     FM210600 18008KT 4SM BR OVC003=

USA.gov is the U.S. government's official web portal to all federal, state and local government web resources and services.